sensor_id;sensor_type;location;lat;lon;timestamp;pressure;altitude;pressure_sealevel;temperature;humidity
49915;BME280;35806;47.958;13.158;2023-09-07T00:02:11;95056.28;;;18.72;49.13
49915;BME280;35806;47.958;13.158;2023-09-07T00:04:38;95053.79;;;18.16;49.76
49915;BME280;35806;47.958;13.158;2023-09-07T00:07:05;95050.80;;;18.20;50.20
49915;BME280;35806;47.958;13.158;2023-09-07T00:09:33;95050.41;;;17.48;51.22
49915;BME280;35806;47.958;13.158;2023-09-07T00:12:00;95054.21;;;17.77;50.84
49915;BME280;35806;47.958;13.158;2023-09-07T00:14:28;95055.72;;;18.08;50.39
49915;BME280;35806;47.958;13.158;2023-09-07T00:16:54;95054.93;;;17.93;50.59
49915;BME280;35806;47.958;13.158;2023-09-07T00:19:22;95056.71;;;18.08;50.59
49915;BME280;35806;47.958;13.158;2023-09-07T00:21:49;95052.51;;;17.85;50.79
49915;BME280;35806;47.958;13.158;2023-09-07T00:24:17;95051.19;;;17.88;51.03
49915;BME280;35806;47.958;13.158;2023-09-07T00:26:45;95049.22;;;17.60;50.87
49915;BME280;35806;47.958;13.158;2023-09-07T00:29:13;95049.94;;;18.22;50.78
49915;BME280;35806;47.958;13.158;2023-09-07T00:31:40;95050.33;;;17.90;50.69
49915;BME280;35806;47.958;13.158;2023-09-07T00:34:07;95049.72;;;17.76;50.54
49915;BME280;35806;47.958;13.158;2023-09-07T00:36:34;95052.15;;;18.41;50.31
49915;BME280;35806;47.958;13.158;2023-09-07T00:39:02;95047.32;;;18.23;50.14
49915;BME280;35806;47.958;13.158;2023-09-07T00:41:29;95048.84;;;18.09;50.15
49915;BME280;35806;47.958;13.158;2023-09-07T00:43:56;95045.33;;;18.18;50.28
49915;BME280;35806;47.958;13.158;2023-09-07T00:46:24;95043.46;;;17.91;50.07
49915;BME280;35806;47.958;13.158;2023-09-07T00:48:51;95039.21;;;17.78;50.72
49915;BME280;35806;47.958;13.158;2023-09-07T00:51:18;95039.12;;;17.38;51.50
49915;BME280;35806;47.958;13.158;2023-09-07T00:53:45;95036.84;;;17.85;51.06
49915;BME280;35806;47.958;13.158;2023-09-07T00:56:13;95036.03;;;17.65;51.34
49915;BME280;35806;47.958;13.158;2023-09-07T00:58:41;95036.93;;;17.83;50.98
49915;BME280;35806;47.958;13.158;2023-09-07T01:15:30;95037.94;;;17.12;48.63
49915;BME280;35806;47.958;13.158;2023-09-07T01:17:58;95038.66;;;18.64;48.84
49915;BME280;35806;47.958;13.158;2023-09-07T01:20:26;95038.43;;;18.12;49.51
49915;BME280;35806;47.958;13.158;2023-09-07T01:22:54;95035.85;;;18.05;49.79
49915;BME280;35806;47.958;13.158;2023-09-07T01:25:22;95033.57;;;18.45;50.64
49915;BME280;35806;47.958;13.158;2023-09-07T01:27:50;95033.20;;;17.98;50.58
49915;BME280;35806;47.958;13.158;2023-09-07T01:30:18;95029.50;;;18.02;50.97
49915;BME280;35806;47.958;13.158;2023-09-07T01:32:46;95031.50;;;17.96;50.19
49915;BME280;35806;47.958;13.158;2023-09-07T01:35:15;95029.93;;;18.20;50.93
49915;BME280;35806;47.958;13.158;2023-09-07T01:37:58;95032.57;;;17.66;51.82
49915;BME280;35806;47.958;13.158;2023-09-07T01:40:25;95039.19;;;17.28;51.95
49915;BME280;35806;47.958;13.158;2023-09-07T01:42:52;95041.59;;;16.58;52.39
49915;BME280;35806;47.958;13.158;2023-09-07T01:45:19;95039.14;;;17.24;52.12
49915;BME280;35806;47.958;13.158;2023-09-07T01:47:46;95035.88;;;17.51;51.67
49915;BME280;35806;47.958;13.158;2023-09-07T01:50:14;95030.63;;;17.23;52.32
49915;BME280;35806;47.958;13.158;2023-09-07T01:52:42;95034.65;;;17.15;52.65
49915;BME280;35806;47.958;13.158;2023-09-07T01:55:09;95034.01;;;16.88;52.67
49915;BME280;35806;47.958;13.158;2023-09-07T01:57:37;95034.33;;;16.96;52.45
49915;BME280;35806;47.958;13.158;2023-09-07T02:00:05;95031.91;;;16.97;52.67
49915;BME280;35806;47.958;13.158;2023-09-07T02:02:33;95030.22;;;17.02;52.50
49915;BME280;35806;47.958;13.158;2023-09-07T02:04:59;95028.52;;;16.81;52.62
49915;BME280;35806;47.958;13.158;2023-09-07T02:07:27;95028.52;;;17.05;52.68
49915;BME280;35806;47.958;13.158;2023-09-07T02:09:54;95026.43;;;16.66;53.21
49915;BME280;35806;47.958;13.158;2023-09-07T02:12:22;95025.15;;;16.44;54.34
49915;BME280;35806;47.958;13.158;2023-09-07T02:14:49;95027.11;;;16.14;53.94
49915;BME280;35806;47.958;13.158;2023-09-07T02:17:16;95027.00;;;16.79;53.53
49915;BME280;35806;47.958;13.158;2023-09-07T02:19:44;95029.49;;;16.99;53.47
49915;BME280;35806;47.958;13.158;2023-09-07T02:22:11;95029.12;;;17.48;53.05
49915;BME280;35806;47.958;13.158;2023-09-07T02:24:38;95032.59;;;17.59;53.73
49915;BME280;35806;47.958;13.158;2023-09-07T02:27:06;95034.16;;;17.43;53.24
49915;BME280;35806;47.958;13.158;2023-09-07T02:29:33;95033.27;;;17.97;52.84
49915;BME280;35806;47.958;13.158;2023-09-07T02:32:00;95036.39;;;17.94;53.37
49915;BME280;35806;47.958;13.158;2023-09-07T02:34:27;95037.83;;;18.05;53.08
49915;BME280;35806;47.958;13.158;2023-09-07T02:36:54;95038.78;;;17.80;51.77
49915;BME280;35806;47.958;13.158;2023-09-07T02:39:22;95042.67;;;15.84;53.77
49915;BME280;35806;47.958;13.158;2023-09-07T02:41:51;95043.19;;;16.05;54.77
49915;BME280;35806;47.958;13.158;2023-09-07T02:44:18;95045.54;;;16.37;55.83
49915;BME280;35806;47.958;13.158;2023-09-07T02:46:46;95043.75;;;16.41;56.01
49915;BME280;35806;47.958;13.158;2023-09-07T02:49:13;95042.56;;;15.99;55.46
49915;BME280;35806;47.958;13.158;2023-09-07T02:51:40;95041.58;;;16.32;55.44
49915;BME280;35806;47.958;13.158;2023-09-07T02:54:07;95040.09;;;16.49;55.24
49915;BME280;35806;47.958;13.158;2023-09-07T02:56:34;95040.39;;;16.60;54.71
49915;BME280;35806;47.958;13.158;2023-09-07T02:59:01;95040.17;;;16.63;55.21
49915;BME280;35806;47.958;13.158;2023-09-07T03:01:28;95040.41;;;16.38;55.90
49915;BME280;35806;47.958;13.158;2023-09-07T03:03:55;95039.37;;;16.66;54.92
49915;BME280;35806;47.958;13.158;2023-09-07T03:06:23;95040.77;;;16.46;54.74
49915;BME280;35806;47.958;13.158;2023-09-07T03:08:50;95042.36;;;15.90;54.85
49915;BME280;35806;47.958;13.158;2023-09-07T03:11:18;95041.58;;;16.25;55.53
49915;BME280;35806;47.958;13.158;2023-09-07T03:13:45;95046.41;;;16.24;55.54
49915;BME280;35806;47.958;13.158;2023-09-07T03:16:12;95050.37;;;16.50;55.68
49915;BME280;35806;47.958;13.158;2023-09-07T03:18:39;95048.37;;;16.21;55.96
49915;BME280;35806;47.958;13.158;2023-09-07T03:21:06;95047.93;;;16.31;56.09
49915;BME280;35806;47.958;13.158;2023-09-07T03:23:34;95048.77;;;16.69;56.03
49915;BME280;35806;47.958;13.158;2023-09-07T03:26:01;95048.57;;;16.31;55.83
49915;BME280;35806;47.958;13.158;2023-09-07T03:28:28;95046.75;;;16.34;55.60
49915;BME280;35806;47.958;13.158;2023-09-07T03:30:55;95045.67;;;16.66;56.03
49915;BME280;35806;47.958;13.158;2023-09-07T03:33:23;95046.04;;;16.58;55.61
49915;BME280;35806;47.958;13.158;2023-09-07T03:35:50;95042.74;;;16.24;56.07
49915;BME280;35806;47.958;13.158;2023-09-07T03:38:18;95042.14;;;16.88;55.54
49915;BME280;35806;47.958;13.158;2023-09-07T03:40:46;95037.42;;;16.43;56.17
49915;BME280;35806;47.958;13.158;2023-09-07T03:43:13;95040.48;;;16.82;56.14
49915;BME280;35806;47.958;13.158;2023-09-07T03:45:40;95041.15;;;17.03;55.50
49915;BME280;35806;47.958;13.158;2023-09-07T03:48:07;95044.38;;;16.86;55.19
49915;BME280;35806;47.958;13.158;2023-09-07T03:50:34;95044.95;;;16.99;55.06
49915;BME280;35806;47.958;13.158;2023-09-07T03:53:02;95041.52;;;16.58;55.67
49915;BME280;35806;47.958;13.158;2023-09-07T03:55:29;95042.33;;;16.58;55.93
49915;BME280;35806;47.958;13.158;2023-09-07T03:57:55;95038.23;;;16.47;55.95
49915;BME280;35806;47.958;13.158;2023-09-07T04:00:22;95041.71;;;16.64;55.91
49915;BME280;35806;47.958;13.158;2023-09-07T04:02:49;95045.38;;;16.41;55.19
49915;BME280;35806;47.958;13.158;2023-09-07T04:05:16;95043.45;;;16.38;55.85
49915;BME280;35806;47.958;13.158;2023-09-07T04:07:44;95044.72;;;15.64;53.12
49915;BME280;35806;47.958;13.158;2023-09-07T04:10:11;95041.95;;;14.42;55.18
49915;BME280;35806;47.958;13.158;2023-09-07T04:12:38;95041.95;;;14.59;54.74
49915;BME280;35806;47.958;13.158;2023-09-07T04:15:06;95042.32;;;15.17;54.38
49915;BME280;35806;47.958;13.158;2023-09-07T04:17:33;95044.00;;;14.02;56.49
49915;BME280;35806;47.958;13.158;2023-09-07T04:20:00;95039.53;;;14.91;56.51
49915;BME280;35806;47.958;13.158;2023-09-07T04:22:28;95043.69;;;15.15;57.22
49915;BME280;35806;47.958;13.158;2023-09-07T04:24:55;95043.04;;;15.22;56.98
49915;BME280;35806;47.958;13.158;2023-09-07T04:27:22;95044.07;;;15.41;55.81
49915;BME280;35806;47.958;13.158;2023-09-07T04:29:50;95042.90;;;14.72;55.58
49915;BME280;35806;47.958;13.158;2023-09-07T04:32:17;95044.06;;;15.20;55.57
49915;BME280;35806;47.958;13.158;2023-09-07T04:34:45;95043.37;;;15.27;56.25
49915;BME280;35806;47.958;13.158;2023-09-07T04:37:12;95041.48;;;14.98;56.74
49915;BME280;35806;47.958;13.158;2023-09-07T04:39:59;95046.82;;;15.44;56.90
49915;BME280;35806;47.958;13.158;2023-09-07T04:42:27;95049.20;;;14.99;57.90
49915;BME280;35806;47.958;13.158;2023-09-07T04:44:54;95052.79;;;15.12;57.36
49915;BME280;35806;47.958;13.158;2023-09-07T04:47:22;95053.60;;;15.29;56.57
49915;BME280;35806;47.958;13.158;2023-09-07T04:49:49;95053.20;;;15.07;57.00
49915;BME280;35806;47.958;13.158;2023-09-07T04:52:17;95054.10;;;15.52;57.83
49915;BME280;35806;47.958;13.158;2023-09-07T04:54:49;95053.72;;;15.81;57.11
49915;BME280;35806;47.958;13.158;2023-09-07T04:57:16;95056.87;;;15.72;57.18
49915;BME280;35806;47.958;13.158;2023-09-07T04:59:49;95060.01;;;15.77;57.07
49915;BME280;35806;47.958;13.158;2023-09-07T05:02:16;95063.16;;;15.55;56.68
49915;BME280;35806;47.958;13.158;2023-09-07T05:04:44;95062.10;;;15.74;57.68
49915;BME280;35806;47.958;13.158;2023-09-07T05:07:11;95063.81;;;15.70;57.67
49915;BME280;35806;47.958;13.158;2023-09-07T05:09:38;95060.69;;;15.94;57.56
49915;BME280;35806;47.958;13.158;2023-09-07T05:12:06;95062.47;;;15.97;57.51
49915;BME280;35806;47.958;13.158;2023-09-07T05:14:33;95065.89;;;15.96;57.97
49915;BME280;35806;47.958;13.158;2023-09-07T05:17:00;95066.87;;;16.44;57.98
49915;BME280;35806;47.958;13.158;2023-09-07T05:19:28;95070.08;;;16.49;56.93
49915;BME280;35806;47.958;13.158;2023-09-07T05:21:55;95074.90;;;16.77;56.10
49915;BME280;35806;47.958;13.158;2023-09-07T05:24:22;95072.34;;;17.06;55.38
49915;BME280;35806;47.958;13.158;2023-09-07T05:26:50;95074.25;;;16.76;54.79
49915;BME280;35806;47.958;13.158;2023-09-07T05:29:17;95075.20;;;17.00;55.40
49915;BME280;35806;47.958;13.158;2023-09-07T05:31:45;95078.25;;;17.07;54.23
49915;BME280;35806;47.958;13.158;2023-09-07T05:34:13;95080.94;;;17.49;54.28
49915;BME280;35806;47.958;13.158;2023-09-07T05:36:40;95081.75;;;16.99;54.50
49915;BME280;35806;47.958;13.158;2023-09-07T05:39:08;95083.30;;;17.14;54.10
49915;BME280;35806;47.958;13.158;2023-09-07T05:41:39;95085.50;;;17.61;53.78
49915;BME280;35806;47.958;13.158;2023-09-07T05:44:06;95085.42;;;17.82;53.95
49915;BME280;35806;47.958;13.158;2023-09-07T05:46:34;95081.50;;;18.07;53.20
49915;BME280;35806;47.958;13.158;2023-09-07T05:49:01;95087.47;;;18.12;52.70
49915;BME280;35806;47.958;13.158;2023-09-07T05:51:29;95088.12;;;18.36;53.68
49915;BME280;35806;47.958;13.158;2023-09-07T05:53:56;95083.71;;;18.81;53.44
49915;BME280;35806;47.958;13.158;2023-09-07T05:56:24;95084.92;;;18.65;52.87
49915;BME280;35806;47.958;13.158;2023-09-07T05:58:51;95087.34;;;18.51;52.51
49915;BME280;35806;47.958;13.158;2023-09-07T06:01:18;95085.27;;;18.86;51.04
49915;BME280;35806;47.958;13.158;2023-09-07T06:03:46;95088.24;;;18.51;51.53
49915;BME280;35806;47.958;13.158;2023-09-07T06:06:14;95087.75;;;18.33;51.23
49915;BME280;35806;47.958;13.158;2023-09-07T06:08:41;95088.42;;;18.27;51.32
49915;BME280;35806;47.958;13.158;2023-09-07T06:11:08;95089.60;;;17.65;51.58
49915;BME280;35806;47.958;13.158;2023-09-07T06:13:35;95089.39;;;18.09;51.59
49915;BME280;35806;47.958;13.158;2023-09-07T06:16:02;95091.94;;;18.17;51.72
49915;BME280;35806;47.958;13.158;2023-09-07T06:18:30;95091.98;;;18.33;51.24
49915;BME280;35806;47.958;13.158;2023-09-07T06:20:57;95092.89;;;18.18;51.10
49915;BME280;35806;47.958;13.158;2023-09-07T06:23:24;95092.25;;;18.72;50.83
49915;BME280;35806;47.958;13.158;2023-09-07T06:25:51;95091.29;;;18.59;51.31
49915;BME280;35806;47.958;13.158;2023-09-07T06:28:18;95092.66;;;19.14;50.59
49915;BME280;35806;47.958;13.158;2023-09-07T06:30:45;95096.69;;;19.22;50.70
49915;BME280;35806;47.958;13.158;2023-09-07T06:33:13;95098.07;;;19.27;50.69
49915;BME280;35806;47.958;13.158;2023-09-07T06:35:50;95103.48;;;19.22;49.85
49915;BME280;35806;47.958;13.158;2023-09-07T06:38:17;95100.11;;;19.55;50.23
49915;BME280;35806;47.958;13.158;2023-09-07T06:40:48;95104.69;;;19.94;50.15
49915;BME280;35806;47.958;13.158;2023-09-07T06:43:15;95107.25;;;19.91;47.78
49915;BME280;35806;47.958;13.158;2023-09-07T06:45:48;95105.65;;;20.54;48.38
49915;BME280;35806;47.958;13.158;2023-09-07T06:48:16;95107.96;;;20.66;48.68
49915;BME280;35806;47.958;13.158;2023-09-07T06:50:43;95112.33;;;20.76;47.88
49915;BME280;35806;47.958;13.158;2023-09-07T06:53:11;95113.34;;;20.89;47.78
49915;BME280;35806;47.958;13.158;2023-09-07T06:55:38;95114.27;;;21.06;47.46
49915;BME280;35806;47.958;13.158;2023-09-07T06:58:05;95114.16;;;20.75;46.58
49915;BME280;35806;47.958;13.158;2023-09-07T07:00:34;95113.58;;;21.11;46.16
49915;BME280;35806;47.958;13.158;2023-09-07T07:03:01;95115.74;;;21.04;46.60
49915;BME280;35806;47.958;13.158;2023-09-07T07:05:29;95116.87;;;20.99;47.13
49915;BME280;35806;47.958;13.158;2023-09-07T07:07:56;95117.33;;;20.90;47.11
49915;BME280;35806;47.958;13.158;2023-09-07T07:10:24;95118.96;;;21.01;47.60
49915;BME280;35806;47.958;13.158;2023-09-07T07:12:51;95118.97;;;20.35;47.19
49915;BME280;35806;47.958;13.158;2023-09-07T07:15:19;95119.95;;;20.87;46.84
49915;BME280;35806;47.958;13.158;2023-09-07T07:17:46;95119.97;;;20.68;46.71
49915;BME280;35806;47.958;13.158;2023-09-07T07:20:13;95121.02;;;20.75;46.25
49915;BME280;35806;47.958;13.158;2023-09-07T07:22:40;95121.80;;;21.07;46.75
49915;BME280;35806;47.958;13.158;2023-09-07T07:25:08;95125.77;;;20.85;46.78
49915;BME280;35806;47.958;13.158;2023-09-07T07:27:34;95128.96;;;20.80;47.15
49915;BME280;35806;47.958;13.158;2023-09-07T07:30:01;95131.07;;;20.93;45.23
49915;BME280;35806;47.958;13.158;2023-09-07T07:32:28;95130.46;;;20.64;47.20
49915;BME280;35806;47.958;13.158;2023-09-07T07:34:56;95132.97;;;21.32;47.23
49915;BME280;35806;47.958;13.158;2023-09-07T07:37:23;95134.16;;;22.34;44.55
49915;BME280;35806;47.958;13.158;2023-09-07T07:39:51;95132.24;;;21.80;45.05
49915;BME280;35806;47.958;13.158;2023-09-07T07:42:17;95128.70;;;21.58;45.65
49915;BME280;35806;47.958;13.158;2023-09-07T07:44:45;95127.92;;;21.71;44.77
49915;BME280;35806;47.958;13.158;2023-09-07T07:47:12;95128.76;;;21.84;44.95
49915;BME280;35806;47.958;13.158;2023-09-07T07:49:39;95129.90;;;21.87;45.05
49915;BME280;35806;47.958;13.158;2023-09-07T07:52:06;95134.01;;;22.51;44.81
49915;BME280;35806;47.958;13.158;2023-09-07T07:54:34;95136.35;;;22.36;44.37
49915;BME280;35806;47.958;13.158;2023-09-07T07:57:01;95136.90;;;22.45;44.67
49915;BME280;35806;47.958;13.158;2023-09-07T07:59:29;95133.58;;;22.79;43.96
49915;BME280;35806;47.958;13.158;2023-09-07T08:01:56;95134.76;;;23.09;44.49
49915;BME280;35806;47.958;13.158;2023-09-07T08:04:23;95134.71;;;23.44;43.80
49915;BME280;35806;47.958;13.158;2023-09-07T08:06:51;95127.43;;;23.49;42.83
49915;BME280;35806;47.958;13.158;2023-09-07T08:09:18;95129.75;;;23.94;41.57
49915;BME280;35806;47.958;13.158;2023-09-07T08:11:46;95126.55;;;24.23;41.29
49915;BME280;35806;47.958;13.158;2023-09-07T08:14:13;95129.37;;;24.67;41.21
49915;BME280;35806;47.958;13.158;2023-09-07T08:16:40;95132.56;;;24.36;39.78
49915;BME280;35806;47.958;13.158;2023-09-07T08:19:07;95127.72;;;24.42;40.78
49915;BME280;35806;47.958;13.158;2023-09-07T08:21:34;95125.15;;;24.52;40.75
49915;BME280;35806;47.958;13.158;2023-09-07T08:24:02;95122.22;;;24.22;40.72
49915;BME280;35806;47.958;13.158;2023-09-07T08:26:30;95121.77;;;24.28;40.07
49915;BME280;35806;47.958;13.158;2023-09-07T08:28:57;95120.53;;;23.95;39.06
49915;BME280;35806;47.958;13.158;2023-09-07T08:31:24;95121.61;;;24.51;40.43
49915;BME280;35806;47.958;13.158;2023-09-07T08:33:52;95118.84;;;24.30;40.39
49915;BME280;35806;47.958;13.158;2023-09-07T08:36:20;95120.41;;;24.65;40.54
49915;BME280;35806;47.958;13.158;2023-09-07T08:38:47;95118.56;;;24.58;39.66
49915;BME280;35806;47.958;13.158;2023-09-07T08:41:14;95120.21;;;24.57;40.08
49915;BME280;35806;47.958;13.158;2023-09-07T08:43:45;95118.64;;;24.38;40.83
49915;BME280;35806;47.958;13.158;2023-09-07T08:46:15;95120.87;;;24.05;39.56
49915;BME280;35806;47.958;13.158;2023-09-07T08:48:43;95117.01;;;24.87;39.95
49915;BME280;35806;47.958;13.158;2023-09-07T08:51:12;95118.01;;;24.85;41.26
49915;BME280;35806;47.958;13.158;2023-09-07T08:53:40;95115.96;;;24.49;40.00
49915;BME280;35806;47.958;13.158;2023-09-07T08:56:07;95109.94;;;24.77;40.53
49915;BME280;35806;47.958;13.158;2023-09-07T08:58:34;95107.25;;;25.38;40.51
49915;BME280;35806;47.958;13.158;2023-09-07T09:01:02;95109.08;;;25.58;40.24
49915;BME280;35806;47.958;13.158;2023-09-07T09:03:29;95110.70;;;25.72;39.13
49915;BME280;35806;47.958;13.158;2023-09-07T09:06:02;95109.92;;;25.28;38.20
49915;BME280;35806;47.958;13.158;2023-09-07T09:08:29;95108.65;;;26.00;39.71
49915;BME280;35806;47.958;13.158;2023-09-07T09:11:01;95111.24;;;25.61;39.02
49915;BME280;35806;47.958;13.158;2023-09-07T09:13:30;95111.16;;;26.85;38.19
49915;BME280;35806;47.958;13.158;2023-09-07T09:15:59;95112.14;;;26.25;38.14
49915;BME280;35806;47.958;13.158;2023-09-07T09:18:27;95114.65;;;26.28;36.63
49915;BME280;35806;47.958;13.158;2023-09-07T09:20:55;95117.01;;;25.86;37.56
49915;BME280;35806;47.958;13.158;2023-09-07T09:23:22;95120.23;;;26.83;37.33
49915;BME280;35806;47.958;13.158;2023-09-07T09:25:50;95122.58;;;26.51;37.11
49915;BME280;35806;47.958;13.158;2023-09-07T09:28:18;95126.84;;;26.99;36.27
49915;BME280;35806;47.958;13.158;2023-09-07T09:30:46;95123.16;;;26.61;35.60
49915;BME280;35806;47.958;13.158;2023-09-07T09:33:14;95121.95;;;26.05;37.11
49915;BME280;35806;47.958;13.158;2023-09-07T09:35:47;95118.67;;;26.57;36.49
49915;BME280;35806;47.958;13.158;2023-09-07T09:38:15;95118.60;;;25.91;36.34
49915;BME280;35806;47.958;13.158;2023-09-07T09:40:49;95117.91;;;26.43;37.78
49915;BME280;35806;47.958;13.158;2023-09-07T09:43:21;95116.44;;;25.75;36.34
49915;BME280;35806;47.958;13.158;2023-09-07T09:45:49;95114.26;;;26.44;37.05
49915;BME280;35806;47.958;13.158;2023-09-07T09:48:19;95117.11;;;26.70;35.54
49915;BME280;35806;47.958;13.158;2023-09-07T09:50:47;95115.10;;;27.30;35.93
49915;BME280;35806;47.958;13.158;2023-09-07T09:53:15;95114.26;;;27.25;35.55
49915;BME280;35806;47.958;13.158;2023-09-07T09:55:43;95115.10;;;27.26;35.84
49915;BME280;35806;47.958;13.158;2023-09-07T09:58:10;95113.99;;;27.16;34.93
49915;BME280;35806;47.958;13.158;2023-09-07T10:00:37;95112.78;;;27.01;35.04
49915;BME280;35806;47.958;13.158;2023-09-07T10:03:07;95110.04;;;26.70;33.86
49915;BME280;35806;47.958;13.158;2023-09-07T10:05:35;95109.70;;;27.44;34.41
49915;BME280;35806;47.958;13.158;2023-09-07T10:08:08;95111.99;;;26.84;33.90
49915;BME280;35806;47.958;13.158;2023-09-07T10:10:36;95106.03;;;26.96;33.53
49915;BME280;35806;47.958;13.158;2023-09-07T10:13:04;95107.52;;;27.16;34.95
49915;BME280;35806;47.958;13.158;2023-09-07T10:15:32;95107.11;;;27.51;35.01
49915;BME280;35806;47.958;13.158;2023-09-07T10:18:04;95104.32;;;27.46;33.98
49915;BME280;35806;47.958;13.158;2023-09-07T10:20:48;95106.47;;;27.35;33.18
49915;BME280;35806;47.958;13.158;2023-09-07T10:23:16;95105.57;;;27.47;33.58
49915;BME280;35806;47.958;13.158;2023-09-07T10:25:47;95109.76;;;26.96;33.81
49915;BME280;35806;47.958;13.158;2023-09-07T10:28:19;95105.28;;;27.00;34.74
49915;BME280;35806;47.958;13.158;2023-09-07T10:30:58;95110.36;;;27.50;33.99
49915;BME280;35806;47.958;13.158;2023-09-07T10:33:25;95111.10;;;27.64;32.87
49915;BME280;35806;47.958;13.158;2023-09-07T10:35:52;95109.53;;;26.89;32.52
49915;BME280;35806;47.958;13.158;2023-09-07T10:38:20;95107.93;;;27.64;31.18
49915;BME280;35806;47.958;13.158;2023-09-07T10:40:48;95106.41;;;27.48;31.88
49915;BME280;35806;47.958;13.158;2023-09-07T10:43:15;95105.99;;;27.43;32.89
49915;BME280;35806;47.958;13.158;2023-09-07T10:45:45;95104.86;;;28.34;33.87
49915;BME280;35806;47.958;13.158;2023-09-07T10:48:12;95103.52;;;28.16;33.19
49915;BME280;35806;47.958;13.158;2023-09-07T10:50:45;95099.21;;;28.17;32.44
49915;BME280;35806;47.958;13.158;2023-09-07T10:53:13;95096.09;;;27.37;31.76
49915;BME280;35806;47.958;13.158;2023-09-07T10:55:41;95096.78;;;28.41;32.21
49915;BME280;35806;47.958;13.158;2023-09-07T10:58:09;95098.40;;;27.97;32.46
49915;BME280;35806;47.958;13.158;2023-09-07T11:00:36;95097.91;;;27.92;33.56
49915;BME280;35806;47.958;13.158;2023-09-07T11:03:08;95096.49;;;28.02;32.25
49915;BME280;35806;47.958;13.158;2023-09-07T11:05:36;95096.65;;;28.56;32.10
49915;BME280;35806;47.958;13.158;2023-09-07T11:08:05;95089.38;;;27.78;30.69
49915;BME280;35806;47.958;13.158;2023-09-07T11:10:34;95090.60;;;28.45;32.25
49915;BME280;35806;47.958;13.158;2023-09-07T11:13:03;95083.40;;;28.60;32.53
49915;BME280;35806;47.958;13.158;2023-09-07T11:15:30;95091.25;;;27.50;32.07
49915;BME280;35806;47.958;13.158;2023-09-07T11:17:58;95085.75;;;28.08;32.27
49915;BME280;35806;47.958;13.158;2023-09-07T11:20:53;95088.72;;;26.97;33.00
49915;BME280;35806;47.958;13.158;2023-09-07T11:23:21;95085.36;;;28.47;30.76
49915;BME280;35806;47.958;13.158;2023-09-07T11:25:49;95085.03;;;27.95;31.70
49915;BME280;35806;47.958;13.158;2023-09-07T11:28:18;95083.53;;;28.53;32.85
49915;BME280;35806;47.958;13.158;2023-09-07T11:30:54;95084.18;;;28.63;32.48
49915;BME280;35806;47.958;13.158;2023-09-07T11:33:22;95086.08;;;28.50;31.54
49915;BME280;35806;47.958;13.158;2023-09-07T11:35:50;95083.11;;;28.93;32.88
49915;BME280;35806;47.958;13.158;2023-09-07T11:38:18;95088.25;;;28.34;31.48
49915;BME280;35806;47.958;13.158;2023-09-07T11:40:45;95088.56;;;28.13;33.16
49915;BME280;35806;47.958;13.158;2023-09-07T11:43:13;95085.01;;;27.06;31.58
49915;BME280;35806;47.958;13.158;2023-09-07T11:45:40;95089.16;;;28.40;30.99
49915;BME280;35806;47.958;13.158;2023-09-07T11:48:13;95092.49;;;27.83;30.44
49915;BME280;35806;47.958;13.158;2023-09-07T11:50:41;95092.12;;;28.65;30.72
49915;BME280;35806;47.958;13.158;2023-09-07T11:53:08;95089.97;;;28.02;30.85
49915;BME280;35806;47.958;13.158;2023-09-07T11:55:36;95093.34;;;27.42;31.54
49915;BME280;35806;47.958;13.158;2023-09-07T11:58:04;95093.46;;;28.34;31.18
49915;BME280;35806;47.958;13.158;2023-09-07T12:00:32;95091.74;;;27.51;31.26
49915;BME280;35806;47.958;13.158;2023-09-07T12:02:59;95090.99;;;27.98;30.31
49915;BME280;35806;47.958;13.158;2023-09-07T12:05:27;95091.38;;;26.77;31.93
49915;BME280;35806;47.958;13.158;2023-09-07T12:07:55;95093.16;;;26.56;31.54
49915;BME280;35806;47.958;13.158;2023-09-07T12:10:36;95094.61;;;26.51;30.97
49915;BME280;35806;47.958;13.158;2023-09-07T12:13:03;95089.37;;;27.34;32.14
49915;BME280;35806;47.958;13.158;2023-09-07T12:15:31;95088.85;;;27.67;32.76
49915;BME280;35806;47.958;13.158;2023-09-07T12:17:58;95090.98;;;27.34;32.65
49915;BME280;35806;47.958;13.158;2023-09-07T12:20:25;95087.70;;;27.14;32.46
49915;BME280;35806;47.958;13.158;2023-09-07T12:22:53;95079.44;;;27.86;32.34
49915;BME280;35806;47.958;13.158;2023-09-07T12:25:20;95075.82;;;27.61;33.67
49915;BME280;35806;47.958;13.158;2023-09-07T12:28:05;95070.56;;;26.36;32.46
49915;BME280;35806;47.958;13.158;2023-09-07T12:30:33;95072.98;;;26.98;32.84
49915;BME280;35806;47.958;13.158;2023-09-07T12:33:00;95072.38;;;27.63;33.14
49915;BME280;35806;47.958;13.158;2023-09-07T12:35:35;95067.00;;;27.12;33.03
49915;BME280;35806;47.958;13.158;2023-09-07T12:38:15;95066.57;;;27.29;32.05
49915;BME280;35806;47.958;13.158;2023-09-07T12:40:42;95061.47;;;27.15;32.74
49915;BME280;35806;47.958;13.158;2023-09-07T12:43:10;95061.55;;;28.36;32.24
49915;BME280;35806;47.958;13.158;2023-09-07T12:45:37;95060.04;;;28.45;31.22
49915;BME280;35806;47.958;13.158;2023-09-07T12:48:05;95062.13;;;28.36;32.09
49915;BME280;35806;47.958;13.158;2023-09-07T12:50:33;95058.14;;;28.30;31.99
49915;BME280;35806;47.958;13.158;2023-09-07T12:53:00;95056.60;;;27.92;32.41
49915;BME280;35806;47.958;13.158;2023-09-07T12:55:28;95053.60;;;28.40;31.80
49915;BME280;35806;47.958;13.158;2023-09-07T12:57:55;95053.45;;;28.18;32.38
49915;BME280;35806;47.958;13.158;2023-09-07T13:00:22;95053.38;;;28.33;32.48
49915;BME280;35806;47.958;13.158;2023-09-07T13:02:50;95054.28;;;28.20;32.09
49915;BME280;35806;47.958;13.158;2023-09-07T13:05:17;95056.96;;;28.03;32.83
49915;BME280;35806;47.958;13.158;2023-09-07T13:07:45;95053.83;;;28.16;32.23
49915;BME280;35806;47.958;13.158;2023-09-07T13:10:13;95049.69;;;27.52;31.85